Spink Colony, South Dakota
Current Conditions -  °F | °C
As of 11:55 PM on Wednesday 28 Jan 2015 (Local Time) from KHON Reporting Station
Overcast Overcast  
Wind Chill: 20°   Ceiling: 1900
Heat Index: 33°   Visibility: 10mi
Dew Point: 29°   Wind: 25mph
Humidity: 85%   Direction: 330°NNW
Pressure: 30.12"   Gusts: 33mph
Location:  44.7634°N, 98.2811°W
Report Text: KHON 290555Z AUTO 33022G29KT 10SM OVC019 01/M02 A3012 RMK AO2 PK WND 33030/0528 SLP212 60000 T00061017 10056 20006 400780000 51034
Loading
Personal Weather Stations






























Interactive Weather Map New forecast layout! Learn more

10-Day Weather Forecast

Advertisements
Track Severe Weather on mobile